Time;durP1;ratioP1;P1;durP2;ratioP2;P2;SDS_P1;SDS_P2;PMS_P1;PMS_P2;Temp;Humidity;BMP_temperature;BMP_pressure;BME280_temperature;BME280_humidity;BME280_pressure;Samples;Min_cycle;Max_cycle;Signal;HPM_P1;HPM_P2
2022/11/25 00:02:14;;;;;;;147.85;53.63;;;;;;;3.05;85.94;100915.26;1612903;87;20939;-76
2022/11/25 00:04:59;;;;;;;140.90;52.48;;;;;;;3.03;85.92;100913.09;1611223;88;21571;-75
2022/11/25 00:07:44;;;;;;;145.82;52.83;;;;;;;3.03;85.95;100918.20;1613573;86;21043;-76
2022/11/25 00:10:29;;;;;;;138.82;50.75;;;;;;;3.01;85.94;100917.31;1612626;88;20942;-76
2022/11/25 00:13:14;;;;;;;140.22;52.83;;;;;;;3.00;85.95;100920.28;1612600;86;20919;-79
2022/11/25 00:16:08;;;;;;;150.57;52.83;;;;;;;3.01;85.95;100917.31;1612732;88;20962;-76
2022/11/25 00:18:56;;;;;;;157.65;54.83;;;;;;;3.00;85.97;100921.55;1610486;88;20957;-77
2022/11/25 00:21:40;;;;;;;154.25;56.70;;;;;;;3.02;85.99;100916.48;1613623;88;21399;-76
2022/11/25 00:24:25;;;;;;;150.62;56.73;;;;;;;3.00;85.95;100925.39;1613960;86;20958;-77
2022/11/25 00:27:10;;;;;;;166.00;58.83;;;;;;;2.99;85.97;100919.83;1614473;87;20946;-76
2022/11/25 00:29:55;;;;;;;169.45;58.52;;;;;;;3.01;86.04;100917.31;1610477;87;21853;-76
2022/11/25 00:32:40;;;;;;;158.95;55.38;;;;;;;3.00;85.98;100919.00;1597473;86;564218;-76
2022/11/25 00:35:25;;;;;;;158.78;56.88;;;;;;;3.00;85.98;100920.28;1587882;89;21048;-76
2022/11/25 00:38:10;;;;;;;139.20;52.95;;;;;;;2.99;85.99;100918.55;1585318;89;20939;-77
2022/11/25 00:44:34;;;;;;;152.10;54.42;;;;;;;2.97;85.98;100924.05;1583948;88;21579;-77
2022/11/25 00:46:44;;;;;;;143.13;51.45;;;;;;;2.97;86.01;100915.11;1472907;88;10000415;-77
2022/11/25 00:49:29;;;;;;;151.63;51.45;;;;;;;2.86;86.07;100898.30;1511477;87;5001500;-76
2022/11/25 00:52:16;;;;;;;136.10;50.92;;;;;;;2.97;86.05;100921.08;1581883;88;21587;-76
2022/11/25 00:55:03;;;;;;;137.75;50.63;;;;;;;2.97;86.03;100921.50;1583727;88;21777;-76
2022/11/25 00:57:47;;;;;;;137.88;51.20;;;;;;;2.97;86.02;100930.44;1584117;88;21071;-76
2022/11/25 01:00:32;;;;;;;135.20;49.48;;;;;;;2.96;86.04;100928.71;1554588;90;20947;-76
2022/11/25 01:03:17;;;;;;;141.03;52.75;;;;;;;2.94;86.01;100927.81;1581759;88;20967;-76
2022/11/25 01:06:08;;;;;;;142.68;51.30;;;;;;;2.93;86.01;100936.31;1553745;90;37697;-76
2022/11/25 01:08:53;;;;;;;140.68;50.25;;;;;;;2.93;86.06;100930.79;1590590;88;21015;-76
2022/11/25 01:11:38;;;;;;;132.43;47.40;;;;;;;2.94;86.04;100934.20;1591033;88;21013;-77
2022/11/25 01:14:24;;;;;;;136.95;49.42;;;;;;;2.92;86.04;100932.90;1540594;90;21022;-76
2022/11/25 01:17:08;;;;;;;131.77;50.47;;;;;;;2.92;86.03;100930.34;1579748;88;20958;-76
2022/11/25 01:19:53;;;;;;;135.18;49.13;;;;;;;2.91;86.05;100931.59;1581157;88;21378;-76
2022/11/25 01:22:39;;;;;;;133.78;50.10;;;;;;;2.92;86.08;100933.31;1553514;90;21375;-76
2022/11/25 01:25:24;;;;;;;134.37;49.55;;;;;;;2.92;86.07;100939.70;1592913;87;21036;-76
2022/11/25 01:28:09;;;;;;;117.40;46.73;;;;;;;2.91;86.04;100941.39;1592154;88;20966;-77
2022/11/25 01:31:15;;;;;;;117.65;47.30;;;;;;;2.89;86.06;100944.74;1593076;88;21582;-76
2022/11/25 01:34:07;;;;;;;130.00;47.27;;;;;;;2.85;86.04;100948.06;1592894;88;21558;-76
2022/11/25 01:36:52;;;;;;;119.57;46.77;;;;;;;2.84;86.07;100958.69;1560527;90;21522;-77
2022/11/25 01:39:38;;;;;;;122.65;45.43;;;;;;;2.83;86.08;100956.97;1595267;88;21398;-77
2022/11/25 01:42:28;;;;;;;120.85;46.77;;;;;;;2.82;86.05;100956.94;1613041;87;21601;-76
2022/11/25 01:45:27;;;;;;;112.80;43.15;;;;;;;2.82;86.11;100958.22;1611073;88;20979;-75
2022/11/25 01:48:23;;;;;;;114.70;42.95;;;;;;;2.80;86.12;100953.48;1608248;88;20946;-76
2022/11/25 01:51:37;;;;;;;106.85;42.03;;;;;;;2.80;86.11;100954.34;1568945;91;21898;-76
2022/11/25 01:54:26;;;;;;;104.53;42.60;;;;;;;2.80;86.09;100944.55;1606881;87;20987;-76
2022/11/25 01:57:19;;;;;;;100.47;40.73;;;;;;;2.76;86.02;100952.56;1607469;87;20975;-76
2022/11/25 02:00:07;;;;;;;109.37;41.28;;;;;;;2.74;86.06;100952.95;1607587;88;21063;-77
2022/11/25 02:02:54;;;;;;;102.62;39.73;;;;;;;2.74;86.09;100960.61;1608436;88;21419;-76
2022/11/25 02:06:08;;;;;;;107.15;41.98;;;;;;;2.73;86.05;100960.57;1606463;88;20924;-76
2022/11/25 02:09:01;;;;;;;101.60;40.15;;;;;;;2.71;86.09;100966.06;1607519;87;21419;-76
2022/11/25 02:11:47;;;;;;;92.92;38.33;;;;;;;2.70;86.09;100962.64;1608717;88;21034;-76
2022/11/25 02:14:32;;;;;;;102.95;40.08;;;;;;;2.70;86.09;100966.89;1606864;88;21404;-76
2022/11/25 02:17:17;;;;;;;100.85;41.90;;;;;;;2.70;86.12;100968.16;1607116;86;20996;-76
2022/11/25 02:20:07;;;;;;;97.00;40.50;;;;;;;2.69;86.16;100964.75;1608825;88;21038;-76
2022/11/25 02:23:18;;;;;;;99.07;39.73;;;;;;;2.69;86.14;100965.16;1608916;86;21517;-77
2022/11/25 02:26:04;;;;;;;89.32;36.60;;;;;;;2.68;86.10;100966.86;1589437;88;21019;-76
2022/11/25 02:28:49;;;;;;;93.17;37.38;;;;;;;2.66;86.13;100960.85;1608922;85;21514;-76
2022/11/25 02:31:34;;;;;;;93.67;37.73;;;;;;;2.67;86.12;100970.23;1608623;88;21546;-77
2022/11/25 02:36:48;;;;;;;91.03;38.33;;;;;;;2.70;86.14;100956.26;1802864;78;22069;-77
2022/11/25 02:39:33;;;;;;;96.10;39.00;;;;;;;2.58;86.29;100943.27;1767272;79;21020;-77
2022/11/25 02:42:21;;;;;;;101.02;38.30;;;;;;;2.58;86.29;100943.27;1763704;80;21510;-77
2022/11/25 02:45:11;;;;;;;92.70;38.60;;;;;;;2.66;86.08;100953.20;1763160;80;20985;-77
2022/11/25 02:47:56;;;;;;;95.25;38.98;;;;;;;2.62;86.10;100958.65;1764082;80;22277;-77
2022/11/25 02:50:42;;;;;;;95.92;39.63;;;;;;;2.63;86.17;100955.27;1760339;80;21057;-77
2022/11/25 02:53:27;;;;;;;87.50;37.80;;;;;;;2.64;86.21;100958.69;1770059;79;21000;-76
2022/11/25 02:56:15;;;;;;;89.52;37.58;;;;;;;2.63;86.20;100957.82;1754672;79;21303;-76
2022/11/25 02:59:00;;;;;;;92.50;37.83;;;;;;;2.63;86.22;100965.48;1754698;79;22108;-76
2022/11/25 03:01:45;;;;;;;110.45;42.30;;;;;;;2.65;86.22;100964.23;1753714;79;21032;-76
2022/11/25 03:04:30;;;;;;;94.25;39.92;;;;;;;2.62;86.26;100946.30;1755541;79;21080;-76
2022/11/25 03:07:15;;;;;;;93.10;38.90;;;;;;;2.66;86.26;100957.88;1756764;79;21132;-76
2022/11/25 03:10:01;;;;;;;90.70;37.48;;;;;;;2.64;86.17;100956.98;1747978;79;21426;-76
2022/11/25 03:12:46;;;;;;;92.05;38.95;;;;;;;2.63;86.24;100950.16;1749881;79;21052;-76
2022/11/25 03:15:31;;;;;;;83.90;36.83;;;;;;;2.64;86.27;100952.30;1756732;79;21052;-76
2022/11/25 03:18:16;;;;;;;92.85;38.30;;;;;;;2.65;86.26;100955.30;1761866;79;21121;-76
2022/11/25 03:21:01;;;;;;;88.17;37.95;;;;;;;2.63;86.23;100956.55;1757582;79;21067;-76
2022/11/25 03:23:46;;;;;;;92.02;37.53;;;;;;;2.64;86.29;100958.69;1760945;79;21875;-76
2022/11/25 03:26:31;;;;;;;84.95;37.73;;;;;;;2.63;86.25;100960.78;1759694;79;21020;-77
2022/11/25 03:29:16;;;;;;;92.25;38.15;;;;;;;2.62;86.25;100962.89;1748979;79;21525;-76
2022/11/25 03:32:01;;;;;;;91.53;38.33;;;;;;;2.64;86.25;100965.06;1748116;79;21067;-77
2022/11/25 03:34:47;;;;;;;93.72;37.38;;;;;;;2.64;86.24;100964.65;1749485;79;21124;-76
2022/11/25 03:37:32;;;;;;;90.03;37.40;;;;;;;2.64;86.30;100963.38;1755465;79;21061;-76
2022/11/25 03:40:17;;;;;;;91.63;36.50;;;;;;;2.64;86.29;100963.38;1749512;79;22271;-76
2022/11/25 03:43:02;;;;;;;83.13;37.10;;;;;;;2.64;86.27;100963.78;1746249;79;21061;-76
2022/11/25 03:45:50;;;;;;;93.30;39.15;;;;;;;2.65;86.25;100973.17;1750364;79;21383;-76
2022/11/25 03:48:35;;;;;;;94.35;36.35;;;;;;;2.63;86.24;100969.72;1753109;79;21410;-76
2022/11/25 03:51:20;;;;;;;77.78;36.63;;;;;;;2.63;86.26;100976.10;1748466;79;21362;-76
2022/11/25 03:54:05;;;;;;;79.22;36.08;;;;;;;2.62;86.25;100976.52;1748372;79;21953;-76
2022/11/25 03:56:50;;;;;;;84.92;36.25;;;;;;;2.61;86.29;100979.04;1750741;79;21548;-76
2022/11/25 03:59:35;;;;;;;88.40;37.23;;;;;;;2.60;86.31;100977.34;1745198;79;21100;-76
2022/11/25 04:02:20;;;;;;;90.00;39.30;;;;;;;2.61;86.26;100973.93;1748411;79;21123;-75
2022/11/25 04:05:07;;;;;;;87.70;36.63;;;;;;;2.60;86.31;100967.97;1746853;79;21104;-76
2022/11/25 04:07:52;;;;;;;98.37;39.00;;;;;;;2.57;86.23;100964.10;1748305;79;21024;-76
2022/11/25 04:10:37;;;;;;;88.07;37.45;;;;;;;2.57;86.38;100962.83;1748598;79;21056;-76
2022/11/25 04:13:22;;;;;;;97.90;39.48;;;;;;;2.60;86.36;100964.58;1749711;79;21116;-76
2022/11/25 04:16:21;;;;;;;86.45;37.60;;;;;;;2.59;86.36;100971.38;1749003;79;21113;-76
2022/11/25 04:19:06;;;;;;;90.80;35.38;;;;;;;2.59;86.36;100976.48;1745659;79;20997;-76
2022/11/25 04:21:52;;;;;;;88.80;36.90;;;;;;;2.58;86.37;100981.14;1752325;79;21545;-76
2022/11/25 04:24:37;;;;;;;89.80;37.15;;;;;;;2.58;86.37;100986.66;1751995;79;21621;-76
2022/11/25 04:27:22;;;;;;;91.92;36.83;;;;;;;2.57;86.35;100991.31;1753648;79;21085;-76
2022/11/25 04:30:08;;;;;;;82.20;36.77;;;;;;;2.55;86.35;100992.56;1753808;79;21664;-76
2022/11/25 04:32:53;;;;;;;87.22;35.50;;;;;;;2.53;86.25;101003.14;1732753;81;21073;-76
2022/11/25 04:35:38;;;;;;;82.80;36.40;;;;;;;2.53;86.25;101003.14;1750146;79;21028;-76
2022/11/25 04:38:23;;;;;;;81.08;34.33;;;;;;;2.53;86.36;101003.56;1754088;79;21117;-76
2022/11/25 04:41:08;;;;;;;77.80;34.30;;;;;;;2.53;86.39;101006.11;1748667;79;21052;-76
2022/11/25 04:43:53;;;;;;;84.75;34.73;;;;;;;2.52;86.35;101010.77;1748433;79;21398;-76
2022/11/25 04:46:41;;;;;;;81.12;34.38;;;;;;;2.51;86.37;101000.97;1751170;80;21053;-76
2022/11/25 04:49:26;;;;;;;75.65;34.58;;;;;;;2.49;86.33;101006.45;1752412;79;21049;-77
2022/11/25 04:52:11;;;;;;;82.85;32.40;;;;;;;2.49;86.35;101004.32;1749614;79;21322;-77
2022/11/25 04:54:56;;;;;;;79.58;34.15;;;;;;;2.48;86.35;101000.91;1753079;79;21085;-77
2022/11/25 04:57:41;;;;;;;79.20;33.30;;;;;;;2.46;86.33;101006.80;1749798;79;20959;-77
2022/11/25 05:00:27;;;;;;;75.17;32.45;;;;;;;2.43;86.33;101000.34;1754089;79;21036;-78
2022/11/25 05:03:12;;;;;;;76.87;33.02;;;;;;;2.42;86.38;101004.59;1744142;79;21112;-78
2022/11/25 05:05:57;;;;;;;77.92;34.00;;;;;;;2.43;86.42;101007.59;1749124;79;21064;-77
2022/11/25 05:08:42;;;;;;;81.15;32.48;;;;;;;2.43;86.40;101006.31;1753230;79;21015;-78
2022/11/25 05:11:27;;;;;;;78.95;32.78;;;;;;;2.42;86.34;101011.38;1752860;79;21516;-77
2022/11/25 05:14:12;;;;;;;71.02;31.50;;;;;;;2.38;86.33;101009.17;1750353;79;21629;-80
2022/11/25 05:16:57;;;;;;;73.47;32.58;;;;;;;2.39;86.37;101006.20;1749002;79;21926;-77
2022/11/25 05:19:44;;;;;;;77.87;31.40;;;;;;;2.39;86.39;101006.20;1747523;79;21580;-78
2022/11/25 05:22:32;;;;;;;72.47;32.28;;;;;;;2.39;86.40;100999.83;1751065;79;21045;-79
2022/11/25 05:25:19;;;;;;;73.92;31.82;;;;;;;2.38;86.37;101003.20;1750832;79;21104;-77
2022/11/25 05:28:04;;;;;;;78.65;32.88;;;;;;;2.37;86.38;101004.03;1754400;79;21053;-79
2022/11/25 05:30:49;;;;;;;76.35;32.42;;;;;;;2.35;86.34;101005.27;1748613;79;21056;-79
2022/11/25 05:33:34;;;;;;;77.47;31.93;;;;;;;2.34;86.40;101009.92;1751174;79;21009;-79
2022/11/25 05:36:19;;;;;;;76.07;31.17;;;;;;;2.36;86.39;101015.92;1746342;79;21704;-79
2022/11/25 05:39:04;;;;;;;69.30;30.00;;;;;;;2.33;86.37;101012.89;1751033;79;21112;-78
2022/11/25 05:41:49;;;;;;;74.22;29.48;;;;;;;2.35;86.37;101016.75;1752798;79;21060;-78
2022/11/25 05:44:34;;;;;;;68.62;29.65;;;;;;;2.31;86.35;101013.27;1749765;79;21327;-78
2022/11/25 05:47:19;;;;;;;67.82;27.17;;;;;;;2.30;86.37;101014.09;1747194;79;21597;-79
2022/11/25 05:50:06;;;;;;;63.87;29.57;;;;;;;2.29;86.33;101010.23;1750631;79;21107;-78
2022/11/25 05:52:51;;;;;;;71.65;28.87;;;;;;;2.27;86.32;101016.98;1751394;79;20910;-79
2022/11/25 05:55:37;;;;;;;73.02;30.08;;;;;;;2.26;86.38;101018.67;1754177;79;20953;-79
2022/11/25 05:58:22;;;;;;;68.85;28.80;;;;;;;2.26;86.38;101011.02;1749873;79;21477;-78
2022/11/25 06:01:11;;;;;;;68.20;28.40;;;;;;;2.25;86.33;101020.77;1750163;79;20937;-77
2022/11/25 06:04:01;;;;;;;68.97;29.32;;;;;;;2.22;86.36;101019.42;1751713;79;21292;-77
2022/11/25 06:06:46;;;;;;;67.95;28.35;;;;;;;2.23;86.36;101022.42;1734153;79;20906;-78
2022/11/25 06:09:31;;;;;;;63.68;27.17;;;;;;;2.22;86.36;101020.70;1749226;79;20929;-77
2022/11/25 06:12:16;;;;;;;65.60;28.55;;;;;;;2.22;86.37;101025.80;1753759;79;21491;-78
2022/11/25 06:15:01;;;;;;;64.25;27.22;;;;;;;2.22;86.36;101018.15;1750643;79;21387;-78
2022/11/25 06:17:46;;;;;;;59.25;25.82;;;;;;;2.20;86.34;101023.63;1748694;79;21255;-77
2022/11/25 06:20:31;;;;;;;63.73;27.73;;;;;;;2.22;86.34;101027.08;1749985;79;20910;-78
2022/11/25 06:23:16;;;;;;;61.05;26.75;;;;;;;2.22;86.37;101028.35;1753774;79;20922;-77
2022/11/25 06:26:15;;;;;;;56.65;25.85;;;;;;;2.22;86.33;101036.01;1753059;79;20906;-77
2022/11/25 06:28:59;;;;;;;63.42;26.42;;;;;;;2.21;86.30;101036.83;1748271;79;21574;-77
2022/11/25 06:31:45;;;;;;;61.50;27.82;;;;;;;2.20;86.32;101035.11;1748742;79;20926;-77
2022/11/25 06:34:29;;;;;;;64.95;26.85;;;;;;;2.20;86.37;101036.38;1749027;79;21341;-77
2022/11/25 06:37:15;;;;;;;65.32;27.20;;;;;;;2.20;86.33;101047.86;1749287;79;20946;-77
2022/11/25 06:39:59;;;;;;;62.78;27.22;;;;;;;2.19;86.31;101050.37;1750483;79;20936;-77
2022/11/25 06:42:44;;;;;;;61.58;27.62;;;;;;;2.17;86.35;101049.47;1749432;79;20941;-77
2022/11/25 06:45:30;;;;;;;61.68;27.30;;;;;;;2.19;86.39;101052.92;1754300;79;21396;-77
2022/11/25 06:48:15;;;;;;;56.13;25.65;;;;;;;2.19;86.37;101049.96;1752490;79;20957;-77
2022/11/25 06:51:05;;;;;;;59.25;25.92;;;;;;;2.20;86.33;101047.86;1749703;79;21291;-77
2022/11/25 06:53:49;;;;;;;62.78;25.80;;;;;;;2.19;86.35;101049.09;1747861;79;21374;-77
2022/11/25 06:56:34;;;;;;;55.67;23.80;;;;;;;2.18;86.32;101052.47;1748946;79;21244;-77
2022/11/25 06:59:21;;;;;;;49.40;23.67;;;;;;;2.18;86.38;101055.02;1756585;79;20890;-75
2022/11/25 07:02:06;;;;;;;49.38;24.50;;;;;;;2.17;86.32;101057.13;1747865;79;21295;-75
2022/11/25 07:04:50;;;;;;;45.20;23.00;;;;;;;2.17;86.34;101058.40;1753908;79;20890;-75
2022/11/25 07:07:36;;;;;;;50.17;23.95;;;;;;;2.18;86.34;101052.47;1752731;79;20898;-75
2022/11/25 07:10:21;;;;;;;45.35;22.40;;;;;;;2.16;86.23;101054.98;1749444;79;20973;-75
2022/11/25 07:13:05;;;;;;;50.52;23.40;;;;;;;2.16;86.23;101054.98;1751881;79;20946;-75
2022/11/25 07:15:51;;;;;;;55.30;26.48;;;;;;;2.17;86.34;101064.78;1751481;79;21478;-75
2022/11/25 07:18:38;;;;;;;48.08;22.77;;;;;;;2.18;86.35;101069.92;1752279;79;20972;-75
2022/11/25 07:21:24;;;;;;;43.17;21.77;;;;;;;2.18;86.33;101075.44;1728263;81;21530;-75
2022/11/25 07:24:11;;;;;;;51.50;21.65;;;;;;;2.17;86.28;101076.26;1752703;79;21355;-75
2022/11/25 07:26:56;;;;;;;52.08;23.77;;;;;;;2.17;86.31;101081.36;1750912;79;21442;-75
2022/11/25 07:29:41;;;;;;;51.35;21.95;;;;;;;2.17;86.35;101078.39;1751733;79;20972;-75
2022/11/25 07:32:26;;;;;;;46.60;21.82;;;;;;;2.17;86.30;101077.53;1748552;79;21299;-75
2022/11/25 07:35:11;;;;;;;44.85;22.02;;;;;;;2.13;86.18;101073.18;1746046;79;21311;-75
2022/11/25 07:37:56;;;;;;;47.98;22.65;;;;;;;2.11;86.25;101085.03;1744221;79;21371;-75
2022/11/25 07:40:41;;;;;;;46.63;23.12;;;;;;;2.11;86.32;101082.06;1743926;80;21028;-75
2022/11/25 07:43:26;;;;;;;56.20;24.72;;;;;;;2.13;86.38;101093.59;1737326;80;20966;-76
2022/11/25 07:46:15;;;;;;;52.45;24.67;;;;;;;2.15;86.35;101101.73;1735617;81;20938;-75
2022/11/25 07:49:04;;;;;;;49.77;23.22;;;;;;;2.16;86.36;101106.01;1744299;80;21480;-75
2022/11/25 07:51:56;;;;;;;52.83;24.20;;;;;;;2.18;86.43;101100.53;1743432;80;20926;-75
2022/11/25 07:54:41;;;;;;;53.42;24.70;;;;;;;2.23;86.47;101100.23;1738943;80;20950;-75
2022/11/25 07:57:26;;;;;;;55.90;24.05;;;;;;;2.27;86.47;101104.59;1744563;79;21033;-75
2022/11/25 08:00:13;;;;;;;57.83;25.75;;;;;;;2.31;86.49;101110.23;1743553;80;21438;-75
2022/11/25 08:02:57;;;;;;;;;;;;;;;2.33;86.46;101109.86;1743369;80;21033;-75
2022/11/25 08:05:42;;;;;;;54.80;24.32;;;;;;;2.36;86.49;101113.31;1738551;80;20557;-75
2022/11/25 08:08:27;;;;;;;56.35;24.25;;;;;;;2.38;86.40;101115.08;1744416;80;20886;-75
2022/11/25 08:11:16;;;;;;;54.48;24.55;;;;;;;2.40;86.45;101115.98;1738532;81;20909;-75
2022/11/25 08:14:01;;;;;;;58.68;26.33;;;;;;;2.42;86.42;101117.29;1746339;80;20902;-75
2022/11/25 08:16:47;;;;;;;53.52;23.60;;;;;;;2.43;86.43;101121.57;1745303;81;21358;-75
2022/11/25 08:19:33;;;;;;;60.05;25.62;;;;;;;2.46;86.44;101113.99;1743285;81;21415;-75
2022/11/25 08:22:17;;;;;;;57.53;25.00;;;;;;;2.46;86.40;101109.75;1746361;79;21541;-75
2022/11/25 08:25:02;;;;;;;62.25;26.42;;;;;;;2.48;86.42;101105.96;1740443;80;20940;-75
2022/11/25 08:27:47;;;;;;;62.30;27.10;;;;;;;2.49;86.44;101112.38;1743743;80;20958;-75
2022/11/25 08:30:32;;;;;;;63.42;27.45;;;;;;;2.52;86.47;101116.70;1741658;81;20970;-76
2022/11/25 08:33:16;;;;;;;79.40;31.48;;;;;;;2.52;86.43;101118.84;1739257;79;20887;-75
2022/11/25 08:36:01;;;;;;;86.05;33.30;;;;;;;2.55;86.46;101116.77;1742289;80;21492;-75
2022/11/25 08:38:50;;;;;;;81.53;33.23;;;;;;;2.55;86.40;101110.39;1747770;79;21494;-75
2022/11/25 08:41:37;;;;;;;84.52;34.95;;;;;;;2.55;86.43;101109.11;1748557;79;20967;-74
2022/11/25 08:44:22;;;;;;;88.65;36.10;;;;;;;2.58;86.51;101106.64;1744794;79;20902;-75
2022/11/25 08:47:08;;;;;;;90.10;35.13;;;;;;;2.62;86.54;101109.69;1742570;79;20897;-74
2022/11/25 08:49:53;;;;;;;;;;;;;;;2.63;86.52;101116.10;1757100;79;21037;-76
2022/11/25 08:52:38;;;;;;;73.02;29.55;;;;;;;2.66;86.53;101113.62;1747758;79;20127;-75
2022/11/25 08:55:25;;;;;;;80.87;32.17;;;;;;;2.70;86.55;101119.66;1751314;79;21287;-76
2022/11/25 08:58:12;;;;;;;74.32;32.80;;;;;;;2.71;86.50;101117.98;1751547;79;21371;-75
2022/11/25 09:00:56;;;;;;;82.42;33.15;;;;;;;2.73;86.55;101116.33;1749278;79;20977;-76
2022/11/25 09:03:45;;;;;;;76.60;31.25;;;;;;;2.77;86.58;101133.03;1752407;79;20957;-76
2022/11/25 09:06:30;;;;;;;68.60;30.65;;;;;;;2.79;86.57;101126.27;1755413;79;21490;-76
2022/11/25 09:09:15;;;;;;;69.75;30.05;;;;;;;2.84;86.54;101123.83;1752795;79;21468;-75
2022/11/25 09:12:00;;;;;;;74.77;31.00;;;;;;;2.84;86.47;101126.38;1733347;79;310292;-75
2022/11/25 09:14:45;;;;;;;78.78;32.28;;;;;;;2.85;86.51;101128.11;1646475;84;21009;-75
2022/11/25 09:17:30;;;;;;;73.37;31.93;;;;;;;2.88;86.57;101122.66;1629850;86;20973;-75
2022/11/25 09:20:15;;;;;;;80.12;33.20;;;;;;;2.92;86.50;101119.34;1630572;86;20926;-75
2022/11/25 09:23:01;;;;;;;74.25;30.97;;;;;;;2.92;86.50;101128.29;1629286;86;21458;-75
2022/11/25 09:25:56;;;;;;;;;;;;;;;2.94;86.56;101126.63;1633512;86;21006;-75
2022/11/25 09:28:40;;;;;;;68.28;28.35;;;;;;;2.96;86.58;101131.36;1630200;86;20191;-75
2022/11/25 09:31:25;;;;;;;80.47;32.20;;;;;;;2.97;86.54;101120.31;1629307;86;21596;-75
2022/11/25 09:34:10;;;;;;;81.57;33.15;;;;;;;2.99;86.53;101125.46;1629983;86;21057;-75
2022/11/25 09:36:56;;;;;;;76.42;33.65;;;;;;;2.98;86.47;101111.83;1629389;86;21525;-75
2022/11/25 09:39:41;;;;;;;76.65;32.50;;;;;;;2.98;86.53;101119.91;1630993;86;21561;-75
2022/11/25 09:49:16;;;;;;;78.52;32.88;;;;;;;3.10;86.57;101126.98;1631186;86;20958;-75
2022/11/25 09:52:18;;;;;;;76.80;33.25;;;;;;;3.11;86.52;101124.46;1631424;86;21008;-75
2022/11/25 09:55:18;;;;;;;79.27;32.48;;;;;;;3.06;86.44;101136.27;1631974;86;20989;-75
2022/11/25 09:58:33;;;;;;;80.45;33.58;;;;;;;3.09;86.57;101138.03;1631720;85;21533;-75
2022/11/25 10:01:24;;;;;;;69.72;30.43;;;;;;;3.09;86.52;101129.09;1630416;85;21434;-75
2022/11/25 10:04:14;;;;;;;74.22;33.58;;;;;;;3.05;86.45;101133.27;1630539;86;21541;-75
2022/11/25 10:07:02;;;;;;;73.07;31.85;;;;;;;3.06;86.53;101139.23;1632116;86;21016;-75
2022/11/25 10:09:47;;;;;;;78.78;33.25;;;;;;;3.08;86.60;101137.17;1631201;86;21824;-75
2022/11/25 10:12:37;;;;;;;68.97;31.55;;;;;;;3.11;86.63;101135.96;1632846;86;21406;-75
2022/11/25 10:15:36;;;;;;;72.08;32.10;;;;;;;3.14;86.61;101141.11;1631122;86;20974;-75
2022/11/25 10:18:35;;;;;;;68.28;30.35;;;;;;;3.17;86.61;101146.70;1631435;86;21517;-75
2022/11/25 10:21:20;;;;;;;70.45;31.40;;;;;;;3.19;86.59;101151.44;1630860;86;20953;-75
2022/11/25 10:24:09;;;;;;;70.67;30.60;;;;;;;3.22;86.61;101153.64;1632432;86;21439;-75
2022/11/25 10:26:58;;;;;;;76.33;31.50;;;;;;;3.23;86.57;101154.09;1632009;86;21049;-75
2022/11/25 10:29:47;;;;;;;68.80;31.05;;;;;;;3.21;86.47;101153.20;1631706;86;20985;-75
2022/11/25 10:32:39;;;;;;;75.20;33.02;;;;;;;3.19;86.42;101150.16;1631873;85;21482;-77
2022/11/25 10:35:33;;;;;;;78.28;32.53;;;;;;;3.18;86.44;101149.30;1631702;86;20902;-75
2022/11/25 10:38:23;;;;;;;83.12;34.95;;;;;;;3.18;86.44;101150.98;1629164;86;20918;-75
2022/11/25 10:41:15;;;;;;;84.92;35.98;;;;;;;3.17;86.48;101155.23;1629037;86;20940;-75
2022/11/25 10:44:00;;;;;;;84.80;39.05;;;;;;;3.17;86.47;101158.20;1628510;86;20969;-75
2022/11/25 10:46:56;;;;;;;80.20;35.80;;;;;;;3.17;86.50;101147.56;1630114;86;21414;-75
2022/11/25 10:50:17;;;;;;;;;;;;;;;3.18;86.50;101156.95;1627445;86;20992;-75
2022/11/25 11:08:22;;;;;;;78.37;36.40;;;;;;;3.51;86.61;101161.95;1724587;80;27524;-79
2022/11/25 11:11:21;;;;;;;79.32;34.58;;;;;;;3.51;86.55;101163.23;1686875;83;21011;-79
2022/11/25 11:14:12;;;;;;;66.22;30.90;;;;;;;3.52;86.52;101164.96;1680194;83;20988;-79
2022/11/25 11:16:58;;;;;;;72.55;32.67;;;;;;;3.52;86.54;101158.56;1672803;83;21012;-79
2022/11/25 11:19:48;;;;;;;72.82;32.00;;;;;;;3.53;86.58;101160.70;1696381;83;21341;-78
2022/11/25 11:22:36;;;;;;;76.17;31.93;;;;;;;3.53;86.55;101159.02;1681782;83;21595;-78
2022/11/25 11:25:32;;;;;;;72.90;32.67;;;;;;;3.54;86.54;101162.44;1668055;83;21099;-79
2022/11/25 11:28:33;;;;;;;72.27;31.33;;;;;;;3.54;86.58;101158.19;1684608;83;21480;-78
2022/11/25 11:31:30;;;;;;;67.15;30.90;;;;;;;3.54;86.56;101156.91;1662504;83;20952;-79
2022/11/25 11:34:38;;;;;;;74.22;31.65;;;;;;;3.55;86.53;101151.38;1693562;82;21475;-79
2022/11/25 11:37:45;;;;;;;70.78;32.15;;;;;;;3.56;86.54;101154.38;1680521;81;21807;-79
2022/11/25 11:40:45;;;;;;;92.53;36.80;;;;;;;3.57;86.56;101157.39;1672630;83;20937;-79
2022/11/25 11:44:06;;;;;;;69.50;30.57;;;;;;;3.56;86.50;101166.75;1678612;83;20932;-79
2022/11/25 11:47:34;;;;;;;63.50;29.77;;;;;;;3.56;86.50;101167.16;1683142;82;21457;-78
2022/11/25 11:50:36;;;;;;;57.80;26.85;;;;;;;3.58;86.55;101169.34;1638126;84;22061;-78
2022/11/25 11:53:49;;;;;;;55.52;24.98;;;;;;;3.60;86.58;101172.37;1681582;83;20918;-79
2022/11/25 11:56:41;;;;;;;48.60;23.18;;;;;;;3.61;86.52;101175.80;1690672;82;21498;-79
2022/11/25 11:59:47;;;;;;;54.18;26.07;;;;;;;3.62;86.49;101167.30;1703995;82;20906;-79
2022/11/25 12:17:04;;;;;;;53.63;27.40;;;;;;;4.07;86.62;101156.23;1709244;80;27136;-77
2022/11/25 12:20:05;;;;;;;49.48;25.02;;;;;;;4.04;86.39;101156.17;1661172;84;21578;-77
2022/11/25 12:23:11;;;;;;;50.58;24.77;;;;;;;3.97;86.32;101159.03;1758509;76;21883;-74
2022/11/25 12:26:04;;;;;;;49.20;24.60;;;;;;;3.94;86.40;101157.27;1748921;79;21018;-76
2022/11/25 12:29:02;;;;;;;47.88;24.18;;;;;;;3.91;86.39;101163.61;1762277;79;21063;-76
2022/11/25 12:37:24;;;;;;;56.33;26.27;;;;;;;3.88;86.50;101166.52;1773702;78;59103;-75
2022/11/25 12:40:16;;;;;;;54.67;27.20;;;;;;;3.85;86.45;101160.93;1748234;80;20965;-75
2022/11/25 12:43:09;;;;;;;57.00;27.48;;;;;;;3.83;86.42;101157.48;1714377;81;21477;-75
2022/11/25 12:46:30;;;;;;;57.13;27.17;;;;;;;3.78;86.31;101164.20;1758107;80;21087;-75
2022/11/25 12:49:25;;;;;;;59.85;27.17;;;;;;;3.74;86.28;101153.87;1711282;82;21083;-75
2022/11/25 13:27:39;;;;;;;63.50;31.30;;;;;;;3.51;86.14;101167.48;1743281;80;25677;-74
2022/11/25 13:30:37;;;;;;;53.48;26.52;;;;;;;3.46;86.12;101166.52;1742639;81;21015;-74
2022/11/25 13:33:27;;;;;;;55.08;26.95;;;;;;;3.44;86.20;101173.29;1747313;81;21043;-74
2022/11/25 13:36:26;;;;;;;59.23;29.90;;;;;;;3.46;86.28;101179.30;1727460;80;21170;-74
2022/11/25 13:39:18;;;;;;;53.80;26.65;;;;;;;3.47;86.28;101172.94;1732932;80;21005;-74
2022/11/25 13:42:25;;;;;;;56.80;25.77;;;;;;;3.48;86.25;101181.06;1732962;80;21068;-75
2022/11/25 13:45:37;;;;;;;70.03;32.48;;;;;;;3.50;86.23;101178.12;1732295;80;21010;-75
2022/11/25 13:48:27;;;;;;;86.47;40.78;;;;;;;3.51;86.23;101182.83;1735047;81;21516;-74
2022/11/25 13:51:16;;;;;;;68.72;31.90;;;;;;;3.50;86.19;101186.21;1731061;80;20924;-75
2022/11/25 13:54:06;;;;;;;54.23;26.37;;;;;;;3.49;86.21;101185.34;1730307;80;21313;-75
2022/11/25 13:57:14;;;;;;;56.77;25.97;;;;;;;3.49;86.20;101188.31;1735572;80;20905;-76
2022/11/25 14:00:10;;;;;;;58.85;27.75;;;;;;;3.49;86.20;101187.03;1725340;80;20918;-75
2022/11/25 14:02:58;;;;;;;;;;;;;;;3.51;86.24;101186.24;1735181;80;20955;-74
2022/11/25 14:06:03;;;;;;;63.92;27.40;;;;;;;3.48;86.19;101183.62;1734489;80;20433;-75
2022/11/25 14:09:05;;;;;;;72.20;30.85;;;;;;;3.48;86.23;101189.14;1738291;80;21469;-75
2022/11/25 14:12:16;;;;;;;70.80;30.55;;;;;;;3.47;86.18;101189.98;1730519;80;20952;-74
2022/11/25 14:15:18;;;;;;;81.30;36.20;;;;;;;3.43;86.16;101192.02;1682891;82;20949;-74
2022/11/25 14:18:08;;;;;;;92.50;42.58;;;;;;;3.44;86.24;101196.30;1727209;81;20961;-75
2022/11/25 14:21:22;;;;;;;86.82;38.88;;;;;;;3.41;86.22;101199.65;1728561;80;20943;-75